Aviation Digital Data Service (ADDS)

Output produced by METARs form (1209 UTC 24 June 2017)
found at http://aviationweather.gov/adds/metars/
 
METAR text: EDJA 241150Z 24009KT 210V270 9999 BKN041 23/15 Q1020
Conditions at: EDJA (MEMMINGEN ALLGAU, DE) observed 1150 UTC 24 June 2017
Temperature: 23.0°C (73°F)
Dewpoint: 15.0°C (59°F) [RH = 61%]
Pressure (altimeter): 30.12 inches Hg (1020.0 mb)
Winds: from the WSW (240 degrees) at 10 MPH (9 knots; 4.7 m/s)
Visibility: 6 or more miles (10+ km)
Ceiling: 4100 feet AGL
Clouds: broken clouds at 4100 feet AGL
Weather: no significant weather observed at this time

Forecast for: EDJA (MEMMINGEN ALLGAU, DE)
Text: TAF EDJA 241100Z 2412/2421 24010KT 9999 SCT040
Forecast period: 1200 to 2100 UTC 24 June 2017
Forecast type: FROM: standard forecast or significant change
Winds: from the WSW (240 degrees) at 12 MPH (10 knots; 5.2 m/s)
Visibility: 6 or more miles (10+ km)
Clouds: scattered clouds at 4000 feet AGL
Weather: no significant weather forecast for this period
Text: PROB30
Forecast period: 1700 to 2000 UTC 24 June 2017
Forecast type: TEMPORARY: The following changes expected for less than half the time period
Winds: from the W (260 degrees) at 23 MPH (20 knots; 10.4 m/s)
gusting to 40 MPH (35 knots; 18.2 m/s)
Clouds: scattered clouds at 5000 feet AGL
Weather: SHRA  (rain showers)